Billy Bishop Toronto City Centre Airport
CYTZ : now visible

Airfield :











YOU CAN JOIN US ON...

 
LOGIN :

Register | Disclaimer

   EN    FR    IT 

 









Legend :    VFR   Marginal VFR   IFR   Intensive IFR   Very Intensive IFR
Visi :
Ceiling :
>= 8 km
>= 3000ft
5 to 8 km
1000 to 3000 ft
1500m to 5 km
500 to 1000 ft
800 to 1500m
200 to 500 ft
< 800m
< 200 ft
Symbols :   Thunderstorms  Fog  Heavy snow  Heavy precipitations  Wind > 20 kt






- Airport Elevation : 251 ft
- IATA code : YTZ


CYTZ - Billy Bishop Toronto City Centre

CURRENT METAR :
  • 241100Z AUTO 30002KT 9SM FEW042 M06/M10 A3032 RMK SLP277

EXPIRED METARs :
  • 241000Z AUTO 00000KT 9SM BKN044 M05/M10 A3033 RMK SLP279
  • 240900Z AUTO 32005KT 260V330 9SM BKN044 M05/M11 A3033 RMK SLP278

TAF TAF CYTZ
Valid from the 24 at 08:00 until the 25 at 08:00 UTC


240738Z 2408/2508 28005KT P6SM OVC040
FM241600 18008KT P6SM SCT030 BKN100
TEMPO 2416/2422 BKN030 OVC100
FM242200 18008KT P6SM -SN SCT020 OVC060
FM250400 VRB03KT P6SM FEW030 BKN060 RMK FCST BASED ON AUTO OBS. NXT FCST BY 241400Z
CZYZ FIR / North America



MET'MAP, your aeronautical weather chart ! - Copyright ORBIFLY December 2007 - Disclaimer

ORBIFLY MET'MAP TEAM :

Programming & Development : Alexandra Zaïnal
Concept & original design : Baudouin d'Aumeries
Assistance for programming : Marc-Olivier Méhu
Technical & hardware support : Manuel Goepfert

Contact : metmap@orbifly.com




SOURCES & CREDITS :

   NOAA       Earth
Advisory